sim
Sign-in with your pilot id or email,
or register
Callsign
Passwort

Schedule Details

Flight Number: RYR4011 (2)
Departure: Gothenburg Landvetter Airport (ESGG) at 15:55
Arrival: Krakow John Paul II International Airport (EPKK) at 17:45
Route: Ryanair Passenger Schedule. Enter filed route here before submitting Pirep.

Weather Information
Getting current METAR information for ESGG 251250Z 20019KT 9000 -RA BKN008 11/10 Q0998
Getting current METAR information for EPKK 251300Z 08007KT 6000 OVC006 11/10 Q1013

Schedule Frequency

Route Map